Terminal Aerodrome Forecast
Issued by NWS Shreveport, LA

Home | Current Version | Previous Version | Text Only | Print | Product List | Glossary On
Versions: 1 2 3 4 5 6 7 8 9 10 11 12 13 14 15 16 17 18 19 20
000
FTUS44 KSHV 261146
TAFMLU
TAF
KMLU 261146Z 2612/2712 00000KT 3/4SM BR VV008
      TEMPO 2612/2615 5SM BR
     FM261500 VRB05KT P6SM SCT030
     FM270000 04010KT P6SM FEW050 SCT150
     FM270900 04012KT P6SM VCSH OVC015=

USA.gov is the U.S. government's official web portal to all federal, state and local government web resources and services.